createdAt,value
2023-03-20T00:07:03.877Z,117.73
2023-03-20T00:17:12.566Z,118.63
2023-03-20T00:27:19.104Z,124.13
2023-03-20T00:37:23.405Z,117.33
2023-03-20T00:47:30.270Z,122.10
2023-03-20T00:57:41.889Z,114.77
2023-03-20T01:07:47.154Z,112.87
2023-03-20T01:17:51.203Z,122.57
2023-03-20T01:27:58.105Z,118.17
2023-03-20T01:38:02.806Z,121.43
2023-03-20T01:48:18.629Z,120.40
2023-03-20T01:58:27.563Z,122.53
2023-03-20T02:08:37.965Z,109.70
2023-03-20T02:18:44.932Z,119.13
2023-03-20T02:29:45.545Z,116.97
2023-03-20T02:40:06.973Z,114.17
2023-03-20T02:50:17.846Z,111.10
2023-03-20T03:00:30.564Z,113.27
2023-03-20T03:10:39.243Z,112.47
2023-03-20T03:20:48.081Z,115.40
2023-03-20T03:30:53.570Z,111.00
2023-03-20T03:41:17.800Z,110.50
2023-03-20T03:51:25.997Z,110.43
2023-03-20T04:01:45.003Z,114.67
2023-03-20T04:11:52.531Z,114.50
2023-03-20T04:21:57.536Z,109.07
2023-03-20T04:32:01.074Z,126.57
2023-03-20T04:42:31.960Z,109.27
2023-03-20T04:52:39.439Z,106.10
2023-03-20T05:02:45.641Z,109.27
2023-03-20T05:12:51.626Z,107.33
2023-03-20T05:23:14.894Z,107.93
2023-03-20T05:33:44.739Z,109.40
2023-03-20T05:43:59.097Z,115.90
2023-03-20T05:54:20.551Z,116.17
2023-03-20T06:04:37.730Z,112.37
2023-03-20T06:15:11.362Z,122.87
2023-03-20T06:25:21.880Z,132.43
2023-03-20T06:35:25.641Z,145.77
2023-03-20T06:45:30.726Z,144.60
2023-03-20T06:55:37.983Z,137.40
2023-03-20T07:05:44.959Z,122.10
2023-03-20T07:16:03.364Z,129.03
2023-03-20T07:26:13.840Z,119.83
2023-03-20T07:36:17.874Z,117.10
2023-03-20T07:46:23.416Z,119.70
2023-03-20T07:56:27.068Z,117.50
2023-03-20T08:06:31.936Z,117.27
2023-03-20T08:16:35.870Z,114.00
2023-03-20T08:26:40.955Z,120.13
2023-03-20T08:36:44.530Z,118.97
2023-03-20T08:46:49.530Z,119.97
2023-03-20T08:56:53.008Z,120.20
2023-03-20T09:06:57.943Z,120.57
2023-03-20T09:17:01.355Z,126.83
2023-03-20T09:27:06.430Z,127.70
2023-03-20T09:37:09.924Z,133.67
2023-03-20T09:47:21.743Z,130.57
2023-03-20T09:57:30.277Z,127.20
2023-03-20T10:07:35.185Z,123.37
2023-03-20T10:17:53.140Z,122.00
2023-03-20T10:28:01.390Z,124.50
2023-03-20T10:38:19.144Z,123.30
2023-03-20T10:48:34.177Z,124.80
2023-03-20T10:58:41.863Z,136.23
2023-03-20T11:08:51.314Z,128.80
2023-03-20T11:18:55.345Z,131.03
2023-03-20T11:29:01.687Z,128.03
2023-03-20T11:39:14.397Z,119.27
2023-03-20T11:49:24.711Z,113.10
2023-03-20T11:59:34.571Z,117.13
2023-03-20T12:09:44.848Z,113.10
2023-03-20T12:19:50.514Z,115.53
2023-03-20T12:30:02.112Z,111.87
2023-03-20T12:40:07.523Z,107.47
2023-03-20T12:50:28.324Z,113.83
2023-03-20T13:00:38.720Z,117.17
2023-03-20T13:10:51.321Z,116.37
2023-03-20T13:20:57.392Z,114.77
2023-03-20T13:31:10.486Z,105.87
2023-03-20T13:41:15.140Z,112.77
2023-03-20T13:51:31.587Z,110.77
2023-03-20T14:01:49.381Z,119.05
2023-03-20T14:11:55.326Z,126.93
2023-03-20T14:21:59.807Z,121.33
2023-03-20T14:32:36.490Z,109.27
2023-03-20T14:42:52.526Z,117.63
2023-03-20T14:53:11.859Z,112.63
2023-03-20T15:03:18.733Z,111.77
2023-03-20T15:13:25.632Z,107.23
2023-03-20T15:23:29.852Z,114.67
2023-03-20T15:33:38.243Z,109.60
2023-03-20T15:43:42.367Z,112.40
2023-03-20T15:53:50.151Z,114.70
2023-03-20T16:03:59.287Z,109.70
2023-03-20T16:14:05.189Z,112.23
2023-03-20T16:24:16.286Z,111.50
2023-03-20T16:34:25.066Z,108.50
2023-03-20T16:44:35.435Z,110.40
2023-03-20T16:54:40.880Z,112.20
2023-03-20T17:04:46.034Z,107.03
2023-03-20T17:14:51.355Z,110.40
2023-03-20T17:24:55.008Z,121.17
2023-03-20T17:35:00.465Z,115.40
2023-03-20T17:45:05.659Z,127.47
2023-03-20T17:55:11.452Z,131.17
2023-03-20T18:05:15.537Z,116.27
2023-03-20T18:15:20.839Z,120.80
2023-03-20T18:25:26.100Z,121.47
2023-03-20T18:35:31.836Z,113.20
2023-03-20T18:45:35.654Z,117.83
2023-03-20T18:55:41.228Z,114.90
2023-03-20T19:05:45.013Z,114.57
2023-03-20T19:15:50.261Z,111.60
2023-03-20T19:25:56.043Z,118.67
2023-03-20T19:36:03.794Z,115.67
2023-03-20T19:46:18.657Z,145.27
2023-03-20T19:56:31.294Z,140.73
2023-03-20T20:06:35.034Z,151.73
2023-03-20T20:16:42.673Z,143.57
2023-03-20T20:26:59.993Z,141.77
2023-03-20T20:37:51.763Z,155.40
2023-03-20T20:47:36.837Z,162.50
2023-03-20T20:57:42.085Z,162.77
2023-03-20T21:07:47.987Z,153.37
2023-03-20T21:18:00.419Z,156.43
2023-03-20T21:28:05.150Z,166.40
2023-03-20T21:38:55.516Z,165.30
2023-03-20T21:49:22.912Z,157.83
2023-03-20T22:31:05.458Z,158.57
2023-03-20T22:51:03.796Z,115.80
2023-03-20T23:01:10.828Z,113.63
2023-03-20T23:11:17.786Z,114.63
2023-03-20T23:21:22.935Z,113.90
2023-03-20T23:31:28.276Z,110.47
2023-03-20T23:51:57.329Z,109.40
